Purvis, Mississippi
Current Conditions -  °F | °C
As of 6:53 PM on Wednesday 26 Nov 2014 (Local Time) from KHBG Reporting Station
Clear Clear  
Wind Chill: 51°   Ceiling: Unl
Heat Index: 51°   Visibility: 10mi
Dew Point: 39°   Wind: 3mph
Humidity: 63%   Direction: 190°S
Pressure: 30.16"   Gusts: NA
Location:  31.14°N, 89.41°W
Report Text: KHBG 270053Z AUTO 19003KT 10SM CLR 11/04 A3016 RMK AO2 SLP212 T01060039
Loading
Personal Weather Stations






























Interactive Weather Map New forecast layout! Learn more

10-Day Weather Forecast

Advertisements
Track Severe Weather on mobile